Time;durP1;ratioP1;P1;durP2;ratioP2;P2;SDS_P1;SDS_P2;PMS_P1;PMS_P2;Temp;Humidity;BMP_temperature;BMP_pressure;BME280_temperature;BME280_humidity;BME280_pressure;Samples;Min_cycle;Max_cycle;Signal;HPM_P1;HPM_P2
2022/12/28 00:02:05;;;;;;;138.52;77.90;;;;;;;;;;5054145;28;20033;-73
2022/12/28 00:04:31;;;;;;;146.25;82.40;;;;;;;;;;5045531;28;20032;-73
2022/12/28 00:06:56;;;;;;;174.15;92.55;;;;;;;;;;5057305;28;20052;-73
2022/12/28 00:09:22;;;;;;;160.10;90.93;;;;;;;;;;5054316;28;20033;-72
2022/12/28 00:11:48;;;;;;;165.98;93.07;;;;;;;;;;5055387;28;20030;-72
2022/12/28 00:14:14;;;;;;;210.98;115.72;;;;;;;;;;5055461;28;20021;-72
2022/12/28 00:16:41;;;;;;;193.57;108.43;;;;;;;;;;5063935;28;20075;-73
2022/12/28 00:19:15;;;;;;;170.65;97.20;;;;;;;;;;5074364;28;20030;-74
2022/12/28 00:21:42;;;;;;;131.52;76.47;;;;;;;;;;5075334;28;20466;-72
2022/12/28 00:24:14;;;;;;;133.45;71.55;;;;;;;;;;5038021;28;20050;-71
2022/12/28 00:26:40;;;;;;;120.43;67.43;;;;;;;;;;5039819;28;20037;-73
2022/12/28 00:29:06;;;;;;;110.38;66.88;;;;;;;;;;5055106;28;20070;-73
2022/12/28 00:31:33;;;;;;;103.45;61.60;;;;;;;;;;5050368;28;20194;-73
2022/12/28 00:33:58;;;;;;;97.63;56.63;;;;;;;;;;5033833;28;20503;-71
2022/12/28 00:36:25;;;;;;;100.22;56.80;;;;;;;;;;5035146;28;20041;-73
2022/12/28 00:38:51;;;;;;;85.63;52.40;;;;;;;;;;5034571;28;20041;-73
2022/12/28 00:41:17;;;;;;;91.75;50.92;;;;;;;;;;5035183;28;20036;-72
2022/12/28 00:43:43;;;;;;;85.10;48.85;;;;;;;;;;5034999;28;20025;-73
2022/12/28 00:46:09;;;;;;;78.22;46.03;;;;;;;;;;5034042;28;20045;-72
2022/12/28 00:48:34;;;;;;;80.03;46.38;;;;;;;;;;5035347;28;20108;-72
2022/12/28 00:51:03;;;;;;;80.60;46.28;;;;;;;;;;5034564;28;20068;-73
2022/12/28 00:53:28;;;;;;;88.93;47.80;;;;;;;;;;5034224;28;20032;-72
2022/12/28 00:55:54;;;;;;;79.80;44.65;;;;;;;;;;5034404;28;20422;-73
2022/12/28 00:58:20;;;;;;;83.47;47.15;;;;;;;;;;5034511;28;20087;-73
2022/12/28 01:00:48;;;;;;;74.53;44.83;;;;;;;;;;5033490;28;20036;-73
2022/12/28 01:03:13;;;;;;;68.72;42.75;;;;;;;;;;5034582;28;20472;-73
2022/12/28 01:05:39;;;;;;;63.70;39.92;;;;;;;;;;5033074;28;20183;-72
2022/12/28 01:08:07;;;;;;;65.95;39.45;;;;;;;;;;5032690;28;20034;-73
2022/12/28 01:10:33;;;;;;;72.93;40.72;;;;;;;;;;5032444;28;20041;-73
2022/12/28 01:12:59;;;;;;;75.00;45.47;;;;;;;;;;5032373;28;20022;-73
2022/12/28 01:15:25;;;;;;;69.95;42.13;;;;;;;;;;5034551;28;20095;-72
2022/12/28 01:17:50;;;;;;;68.10;38.70;;;;;;;;;;5035097;28;20024;-72
2022/12/28 01:20:16;;;;;;;73.15;43.92;;;;;;;;;;5032965;28;20037;-72
2022/12/28 01:22:42;;;;;;;75.88;47.47;;;;;;;;;;5033794;28;20029;-71
2022/12/28 01:25:08;;;;;;;85.70;47.42;;;;;;;;;;5032881;28;20029;-72
2022/12/28 01:27:36;;;;;;;86.63;46.67;;;;;;;;;;5034156;28;20028;-73
2022/12/28 01:30:03;;;;;;;72.90;44.47;;;;;;;;;;5033769;28;20042;-72
2022/12/28 01:32:30;;;;;;;75.97;45.13;;;;;;;;;;5035464;28;20078;-73
2022/12/28 01:34:55;;;;;;;74.32;43.40;;;;;;;;;;5032541;28;20037;-72
2022/12/28 01:37:21;;;;;;;75.03;44.30;;;;;;;;;;5033734;28;20026;-72
2022/12/28 01:39:47;;;;;;;71.93;45.05;;;;;;;;;;5033446;28;20038;-71
2022/12/28 01:42:18;;;;;;;70.82;41.75;;;;;;;;;;5030621;28;20079;-71
2022/12/28 01:44:49;;;;;;;72.75;41.53;;;;;;;;;;5034021;28;20544;-73
2022/12/28 01:47:19;;;;;;;66.05;42.03;;;;;;;;;;5032742;28;20033;-72
2022/12/28 01:49:48;;;;;;;73.35;43.28;;;;;;;;;;5032697;28;20038;-73
2022/12/28 01:52:43;;;;;;;74.03;42.00;;;;;;;;;;5033563;28;20041;-72
2022/12/28 01:55:32;;;;;;;66.07;40.70;;;;;;;;;;5033913;28;20044;-72
2022/12/28 01:58:10;;;;;;;69.47;39.92;;;;;;;;;;5044069;28;20131;-72
2022/12/28 02:00:36;;;;;;;65.65;38.15;;;;;;;;;;5032260;28;20029;-72
2022/12/28 02:03:15;;;;;;;66.38;40.70;;;;;;;;;;5033324;28;20037;-72
2022/12/28 02:05:44;;;;;;;78.32;42.97;;;;;;;;;;5033534;28;20045;-73
2022/12/28 02:08:23;;;;;;;75.78;41.88;;;;;;;;;;5033551;28;20033;-72
2022/12/28 02:10:51;;;;;;;69.38;42.42;;;;;;;;;;5032197;28;20029;-73
2022/12/28 02:13:18;;;;;;;65.75;37.95;;;;;;;;;;5032082;28;20033;-73
2022/12/28 02:15:45;;;;;;;70.07;37.95;;;;;;;;;;5031843;28;20483;-71
2022/12/28 02:18:13;;;;;;;60.25;36.78;;;;;;;;;;5031779;28;20456;-72
2022/12/28 02:21:10;;;;;;;64.00;38.15;;;;;;;;;;5031914;28;20029;-73
2022/12/28 02:23:50;;;;;;;62.67;39.45;;;;;;;;;;5031838;28;20033;-72
2022/12/28 02:26:25;;;;;;;71.05;40.90;;;;;;;;;;5033122;28;20033;-70
2022/12/28 02:28:54;;;;;;;73.80;43.58;;;;;;;;;;5032750;28;20044;-72
2022/12/28 02:31:34;;;;;;;75.82;41.70;;;;;;;;;;5031784;28;20479;-72
2022/12/28 02:34:03;;;;;;;60.90;38.50;;;;;;;;;;5032805;28;20091;-73
2022/12/28 02:36:37;;;;;;;69.97;41.97;;;;;;;;;;5031351;28;20060;-73
2022/12/28 02:39:16;;;;;;;63.05;39.08;;;;;;;;;;5014918;28;20124;-72
2022/12/28 02:41:44;;;;;;;65.85;38.53;;;;;;;;;;5033085;28;20088;-71
2022/12/28 02:44:11;;;;;;;56.58;33.58;;;;;;;;;;5031560;28;20021;-72
2022/12/28 02:52:29;;;;;;;65.82;40.72;;;;;;;;;;5032031;28;20034;-71
2022/12/28 02:58:30;;;;;;;66.03;39.25;;;;;;;;;;5031234;28;20064;-73
2022/12/28 03:01:08;;;;;;;69.55;40.97;;;;;;;;;;5030923;28;20033;-72
2022/12/28 03:03:57;;;;;;;72.55;41.35;;;;;;;;;;5031346;28;20041;-72
2022/12/28 03:09:57;;;;;;;78.72;46.17;;;;;;;;;;5011432;28;20038;-72
2022/12/28 03:12:40;;;;;;;76.63;44.67;;;;;;;;;;5011282;28;20038;-73
2022/12/28 03:15:14;;;;;;;72.68;44.22;;;;;;;;;;5011434;28;20036;-71
2022/12/28 03:31:42;;;;;;;63.35;38.70;;;;;;;;;;5030435;28;20383;-71
2022/12/28 03:34:11;;;;;;;65.38;40.17;;;;;;;;;;5046122;28;20032;-72
2022/12/28 03:36:47;;;;;;;66.85;40.38;;;;;;;;;;5027252;28;20064;-72
2022/12/28 03:39:23;;;;;;;71.85;41.35;;;;;;;;;;5027414;28;20034;-72
2022/12/28 03:44:55;;;;;;;73.82;40.47;;;;;;;;;;5030626;28;20042;-72
2022/12/28 03:47:23;;;;;;;78.32;40.47;;;;;;;;;;5030724;28;20026;-73
2022/12/28 03:49:49;;;;;;;69.43;43.17;;;;;;;;;;5030549;28;20032;-72
2022/12/28 03:52:16;;;;;;;69.35;40.15;;;;;;;;;;5030258;28;20044;-72
2022/12/28 03:54:42;;;;;;;70.72;44.08;;;;;;;;;;5014771;28;20060;-73
2022/12/28 03:57:11;;;;;;;70.70;41.40;;;;;;;;;;5040839;28;20037;-72
2022/12/28 03:59:41;;;;;;;66.95;38.50;;;;;;;;;;5043764;28;20532;-72
2022/12/28 04:02:07;;;;;;;63.92;39.88;;;;;;;;;;5030115;28;20037;-73
2022/12/28 04:04:33;;;;;;;52.40;33.05;;;;;;;;;;5029971;28;20036;-73
2022/12/28 04:06:59;;;;;;;48.75;31.65;;;;;;;;;;5012616;28;20040;-71
2022/12/28 04:09:25;;;;;;;46.45;27.75;;;;;;;;;;5030129;28;20431;-72
2022/12/28 04:11:52;;;;;;;43.25;28.52;;;;;;;;;;5025105;28;20085;-72
2022/12/28 04:14:25;;;;;;;42.53;27.52;;;;;;;;;;5022380;28;20032;-72
2022/12/28 04:16:51;;;;;;;45.25;29.13;;;;;;;;;;5028566;28;20037;-71
2022/12/28 04:19:19;;;;;;;43.58;27.75;;;;;;;;;;5029626;28;20498;-73
2022/12/28 04:21:46;;;;;;;47.83;29.13;;;;;;;;;;5029965;28;20057;-72
2022/12/28 04:24:12;;;;;;;44.03;28.45;;;;;;;;;;5029731;28;20060;-74
2022/12/28 04:26:39;;;;;;;48.72;28.65;;;;;;;;;;5045875;28;20036;-72
2022/12/28 04:29:04;;;;;;;46.85;27.65;;;;;;;;;;5028184;28;20042;-72
2022/12/28 04:31:46;;;;;;;49.30;29.67;;;;;;;;;;5024168;28;20041;-71
2022/12/28 04:34:16;;;;;;;50.13;29.58;;;;;;;;;;5023935;28;20123;-72
2022/12/28 04:36:50;;;;;;;51.45;29.65;;;;;;;;;;5009086;28;20058;-71
2022/12/28 04:39:19;;;;;;;49.13;30.35;;;;;;;;;;5009194;28;20026;-72
2022/12/28 04:41:45;;;;;;;49.05;29.33;;;;;;;;;;5018775;28;20502;-70
2022/12/28 04:44:11;;;;;;;48.75;30.60;;;;;;;;;;5032143;28;20041;-73
2022/12/28 04:46:37;;;;;;;60.83;30.20;;;;;;;;;;5025550;28;20149;-72
2022/12/28 04:49:03;;;;;;;53.13;30.08;;;;;;;;;;5033869;28;20091;-72
2022/12/28 04:51:29;;;;;;;55.90;29.42;;;;;;;;;;5035105;28;20024;-72
2022/12/28 04:53:56;;;;;;;46.35;29.00;;;;;;;;;;5033631;28;20040;-72
2022/12/28 04:56:23;;;;;;;47.38;29.02;;;;;;;;;;5033516;28;20029;-72
2022/12/28 04:58:56;;;;;;;42.65;26.38;;;;;;;;;;5034544;28;20025;-73
2022/12/28 05:01:22;;;;;;;44.20;27.55;;;;;;;;;;5031861;28;20030;-73
2022/12/28 05:03:49;;;;;;;45.50;26.10;;;;;;;;;;5035056;28;20586;-73
2022/12/28 05:06:18;;;;;;;53.38;28.23;;;;;;;;;;5034898;28;20116;-72
2022/12/28 05:08:44;;;;;;;48.83;29.10;;;;;;;;;;5034567;28;20032;-73
2022/12/28 05:11:16;;;;;;;49.90;28.92;;;;;;;;;;5034428;28;20088;-72
2022/12/28 05:13:42;;;;;;;51.55;32.08;;;;;;;;;;5033334;28;20120;-72
2022/12/28 05:16:13;;;;;;;57.47;32.05;;;;;;;;;;5049527;28;20075;-72
2022/12/28 05:18:40;;;;;;;52.47;32.20;;;;;;;;;;5034764;28;20029;-72
2022/12/28 05:21:06;;;;;;;54.33;32.42;;;;;;;;;;5034672;28;20444;-73
2022/12/28 05:23:36;;;;;;;53.13;29.80;;;;;;;;;;5037469;28;20033;-72
2022/12/28 05:26:03;;;;;;;55.47;29.92;;;;;;;;;;5037335;28;20062;-72
2022/12/28 05:28:29;;;;;;;63.03;30.63;;;;;;;;;;5028738;28;20053;-73
2022/12/28 05:31:00;;;;;;;48.88;28.77;;;;;;;;;;5028280;28;20025;-73
2022/12/28 05:33:31;;;;;;;45.88;26.65;;;;;;;;;;5032111;28;20079;-72
2022/12/28 05:36:09;;;;;;;47.72;28.17;;;;;;;;;;5014954;28;20052;-72
2022/12/28 05:38:36;;;;;;;51.92;29.45;;;;;;;;;;5031065;28;20037;-73
2022/12/28 05:41:19;;;;;;;54.58;28.35;;;;;;;;;;5031183;28;20053;-74
2022/12/28 05:43:45;;;;;;;51.40;28.10;;;;;;;;;;5034294;28;20124;-76
2022/12/28 05:46:20;;;;;;;58.33;27.83;;;;;;;;;;5032946;28;20045;-76
2022/12/28 05:48:46;;;;;;;58.65;28.35;;;;;;;;;;5027120;28;20021;-75
2022/12/28 05:51:16;;;;;;;54.90;27.25;;;;;;;;;;5033702;28;20098;-75
2022/12/28 05:53:43;;;;;;;72.22;31.02;;;;;;;;;;5023549;28;20037;-76
2022/12/28 05:56:13;;;;;;;71.22;32.50;;;;;;;;;;5028663;28;20528;-75
2022/12/28 05:58:39;;;;;;;57.90;27.08;;;;;;;;;;5033550;28;20562;-76
2022/12/28 06:01:14;;;;;;;46.72;23.90;;;;;;;;;;5032186;28;20033;-75
2022/12/28 06:03:41;;;;;;;51.30;24.83;;;;;;;;;;5033931;28;20041;-75
2022/12/28 06:06:15;;;;;;;43.60;25.50;;;;;;;;;;5033917;28;20036;-75
2022/12/28 06:08:42;;;;;;;44.10;24.52;;;;;;;;;;5033709;28;20116;-74
2022/12/28 06:11:10;;;;;;;43.72;24.10;;;;;;;;;;5033025;28;20033;-75
2022/12/28 06:13:37;;;;;;;39.55;22.35;;;;;;;;;;5030622;28;20033;-75
2022/12/28 06:16:07;;;;;;;37.92;22.70;;;;;;;;;;5016904;28;20026;-75
2022/12/28 06:18:33;;;;;;;40.47;23.65;;;;;;;;;;5011088;28;20037;-75
2022/12/28 06:21:17;;;;;;;43.00;23.05;;;;;;;;;;5012163;28;20048;-75
2022/12/28 06:23:43;;;;;;;46.03;26.42;;;;;;;;;;5013336;28;20427;-75
2022/12/28 06:26:12;;;;;;;41.10;24.27;;;;;;;;;;5026951;28;20086;-73
2022/12/28 06:28:39;;;;;;;47.45;25.40;;;;;;;;;;5033199;28;20103;-75
2022/12/28 06:31:11;;;;;;;45.78;26.48;;;;;;;;;;5015752;28;20038;-75
2022/12/28 06:33:40;;;;;;;41.90;24.08;;;;;;;;;;5033422;28;20057;-75
2022/12/28 06:36:12;;;;;;;44.35;24.70;;;;;;;;;;5033095;28;20032;-75
2022/12/28 06:38:38;;;;;;;39.58;23.10;;;;;;;;;;5033371;28;20067;-74
2022/12/28 06:41:10;;;;;;;49.75;24.92;;;;;;;;;;5033219;28;20037;-73
2022/12/28 06:43:37;;;;;;;48.05;24.42;;;;;;;;;;5032866;28;20041;-74
2022/12/28 06:46:03;;;;;;;43.22;25.80;;;;;;;;;;5003333;28;20045;-74
2022/12/28 06:48:30;;;;;;;45.20;27.10;;;;;;;;;;5012770;28;20084;-73
2022/12/28 06:50:58;;;;;;;47.92;25.58;;;;;;;;;;5011195;28;20026;-75
2022/12/28 06:53:26;;;;;;;39.45;24.00;;;;;;;;;;5012707;28;20029;-74
2022/12/28 06:55:55;;;;;;;41.65;23.80;;;;;;;;;;5011680;28;20030;-73
2022/12/28 06:58:22;;;;;;;43.80;24.48;;;;;;;;;;5012601;28;20026;-73
2022/12/28 07:00:47;;;;;;;41.15;22.30;;;;;;;;;;5012715;28;20041;-74
2022/12/28 07:03:13;;;;;;;38.25;21.80;;;;;;;;;;5016763;28;20072;-74
2022/12/28 07:05:39;;;;;;;33.50;20.58;;;;;;;;;;5016106;28;20057;-75
2022/12/28 07:08:05;;;;;;;37.13;21.40;;;;;;;;;;5011505;28;20053;-74
2022/12/28 07:10:32;;;;;;;34.08;20.05;;;;;;;;;;5010998;28;20026;-75
2022/12/28 07:12:58;;;;;;;34.45;20.77;;;;;;;;;;5017048;28;20041;-76
2022/12/28 07:15:24;;;;;;;31.38;19.65;;;;;;;;;;5032431;28;20032;-76
2022/12/28 07:17:50;;;;;;;34.90;20.00;;;;;;;;;;5014395;28;20091;-74
2022/12/28 07:20:15;;;;;;;29.58;17.85;;;;;;;;;;5032276;28;20390;-73
2022/12/28 07:22:42;;;;;;;32.55;19.55;;;;;;;;;;5032428;28;20037;-74
2022/12/28 07:25:08;;;;;;;34.13;19.92;;;;;;;;;;5030046;28;20025;-74
2022/12/28 07:27:37;;;;;;;35.38;20.20;;;;;;;;;;5022360;28;20090;-72
2022/12/28 07:30:03;;;;;;;36.75;21.65;;;;;;;;;;5031997;28;20372;-73
2022/12/28 07:32:29;;;;;;;42.20;22.05;;;;;;;;;;5032350;28;20061;-74
2022/12/28 07:34:54;;;;;;;53.42;24.00;;;;;;;;;;5028821;28;20051;-73
2022/12/28 07:37:20;;;;;;;43.50;23.13;;;;;;;;;;5031311;28;20042;-75
2022/12/28 07:39:46;;;;;;;63.30;27.77;;;;;;;;;;5031604;28;20021;-75
2022/12/28 07:42:12;;;;;;;73.45;33.00;;;;;;;;;;5025575;28;20451;-74
2022/12/28 07:44:41;;;;;;;71.85;35.45;;;;;;;;;;5016430;28;20383;-74
2022/12/28 07:47:07;;;;;;;73.78;32.92;;;;;;;;;;5011756;28;20038;-74
2022/12/28 07:49:33;;;;;;;74.75;33.60;;;;;;;;;;5025527;28;20025;-74
2022/12/28 07:51:59;;;;;;;74.53;35.33;;;;;;;;;;5006538;28;20030;-73
2022/12/28 07:54:25;;;;;;;69.53;31.23;;;;;;;;;;5011769;28;20045;-74
2022/12/28 07:56:50;;;;;;;64.13;28.83;;;;;;;;;;5025584;28;20164;-73
2022/12/28 07:59:16;;;;;;;61.67;26.67;;;;;;;;;;5031660;28;20041;-73
2022/12/28 08:01:42;;;;;;;68.35;29.38;;;;;;;;;;5026695;28;20030;-74
2022/12/28 08:04:12;;;;;;;78.03;34.25;;;;;;;;;;5010335;28;20025;-75
2022/12/28 08:06:41;;;;;;;59.50;28.85;;;;;;;;;;5011818;28;20030;-75
2022/12/28 08:09:09;;;;;;;60.92;28.10;;;;;;;;;;5012091;28;20025;-74
2022/12/28 08:11:39;;;;;;;103.45;38.15;;;;;;;;;;5012080;28;20113;-75
2022/12/28 08:14:06;;;;;;;79.22;36.25;;;;;;;;;;5010088;28;20113;-77
2022/12/28 08:16:34;;;;;;;96.00;38.70;;;;;;;;;;5012761;28;20057;-75
2022/12/28 08:19:01;;;;;;;81.07;38.17;;;;;;;;;;5013482;28;20096;-76
2022/12/28 08:21:29;;;;;;;83.78;36.95;;;;;;;;;;5015280;28;20032;-74
2022/12/28 08:23:56;;;;;;;95.10;38.45;;;;;;;;;;5015759;28;20029;-74
2022/12/28 08:26:30;;;;;;;94.07;40.25;;;;;;;;;;5015212;28;20033;-74
2022/12/28 08:28:57;;;;;;;;;;;;;;;;;;5015541;28;20045;-72
2022/12/28 08:31:26;;;;;;;92.13;38.30;;;;;;;;;;5015426;28;19921;-71
2022/12/28 08:33:53;;;;;;;86.63;37.95;;;;;;;;;;5015671;28;20046;-73
2022/12/28 08:36:19;;;;;;;90.07;38.75;;;;;;;;;;5015410;28;20053;-73
2022/12/28 08:38:46;;;;;;;91.88;41.05;;;;;;;;;;5020522;28;20427;-73
2022/12/28 08:41:21;;;;;;;94.07;39.95;;;;;;;;;;5034409;28;20124;-71
2022/12/28 08:43:47;;;;;;;79.65;34.53;;;;;;;;;;5028684;28;20424;-72
2022/12/28 08:46:16;;;;;;;76.32;35.70;;;;;;;;;;5015852;28;20029;-73
2022/12/28 08:48:42;;;;;;;93.22;34.88;;;;;;;;;;5014357;28;20049;-73
2022/12/28 08:51:12;;;;;;;71.30;32.63;;;;;;;;;;5038959;28;20033;-73
2022/12/28 08:53:38;;;;;;;88.75;33.17;;;;;;;;;;5030730;28;20034;-72
2022/12/28 08:56:09;;;;;;;64.57;30.90;;;;;;;;;;5014340;28;20038;-73
2022/12/28 08:58:36;;;;;;;68.97;30.83;;;;;;;;;;5013237;28;20030;-73
2022/12/28 09:01:22;;;;;;;63.55;29.85;;;;;;;;;;5015555;28;20369;-76
2022/12/28 09:03:51;;;;;;;58.67;28.08;;;;;;;;;;5015030;28;20030;-75
2022/12/28 09:06:21;;;;;;;57.47;32.85;;;;;;;;;;5014629;28;20030;-74
2022/12/28 09:08:49;;;;;;;58.28;30.30;;;;;;;;;;5012928;28;20038;-75
2022/12/28 09:11:15;;;;;;;63.33;29.35;;;;;;;;;;5014714;28;20045;-75
2022/12/28 09:13:41;;;;;;;69.50;31.35;;;;;;;;;;5014110;28;20038;-73
2022/12/28 09:16:13;;;;;;;67.88;32.00;;;;;;;;;;5014188;28;20028;-75
2022/12/28 09:18:41;;;;;;;63.03;32.30;;;;;;;;;;5012994;28;20042;-74
2022/12/28 09:21:16;;;;;;;64.95;31.73;;;;;;;;;;5014187;28;20054;-75
2022/12/28 09:23:43;;;;;;;59.65;32.88;;;;;;;;;;5014776;28;20037;-74
2022/12/28 09:26:11;;;;;;;57.33;33.20;;;;;;;;;;5016124;28;20053;-75
2022/12/28 09:28:43;;;;;;;56.03;31.48;;;;;;;;;;5034062;28;20360;-75
2022/12/28 09:31:09;;;;;;;56.40;32.38;;;;;;;;;;5033037;28;20056;-74
2022/12/28 09:36:20;;;;;;;62.22;33.83;;;;;;;;;;5033893;28;20040;-73
2022/12/28 09:38:46;;;;;;;62.95;34.88;;;;;;;;;;5033671;28;20104;-72
2022/12/28 09:41:53;;;;;;;65.65;36.53;;;;;;;;;;5033862;28;20030;-74
2022/12/28 09:44:33;;;;;;;63.63;35.40;;;;;;;;;;5032410;28;20033;-74
2022/12/28 09:47:25;;;;;;;59.88;34.72;;;;;;;;;;5033769;28;20113;-73
2022/12/28 09:50:15;;;;;;;58.72;33.40;;;;;;;;;;5029059;28;20065;-74
2022/12/28 09:53:04;;;;;;;61.67;34.75;;;;;;;;;;5033374;28;20116;-74
2022/12/28 09:55:33;;;;;;;56.63;32.35;;;;;;;;;;5041864;28;20621;-73
2022/12/28 09:57:59;;;;;;;51.42;30.85;;;;;;;;;;5033498;28;20452;-72
2022/12/28 10:00:36;;;;;;;51.15;30.10;;;;;;;;;;5018283;28;20534;-73
2022/12/28 10:03:14;;;;;;;58.83;30.40;;;;;;;;;;5027304;28;20034;-73
2022/12/28 10:05:40;;;;;;;60.65;33.60;;;;;;;;;;5012801;28;20490;-74
2022/12/28 10:08:11;;;;;;;60.38;32.22;;;;;;;;;;5015490;28;20034;-73
2022/12/28 10:10:40;;;;;;;56.70;32.40;;;;;;;;;;5022235;28;20076;-74
2022/12/28 10:13:17;;;;;;;67.13;33.92;;;;;;;;;;5012632;28;20080;-75
2022/12/28 10:15:44;;;;;;;90.18;36.65;;;;;;;;;;5020123;28;20055;-75
2022/12/28 10:18:14;;;;;;;65.35;33.78;;;;;;;;;;5027245;28;20033;-76
2022/12/28 10:20:43;;;;;;;60.08;31.95;;;;;;;;;;5030127;28;20447;-74
2022/12/28 10:23:15;;;;;;;57.30;32.70;;;;;;;;;;5032910;28;20025;-75
2022/12/28 10:25:41;;;;;;;60.05;32.75;;;;;;;;;;5032666;28;20041;-75
2022/12/28 10:28:08;;;;;;;60.42;33.75;;;;;;;;;;5032014;28;20116;-73
2022/12/28 10:30:45;;;;;;;58.22;34.53;;;;;;;;;;5032176;28;20531;-76
2022/12/28 10:33:17;;;;;;;59.55;32.88;;;;;;;;;;5017830;28;20034;-74
2022/12/28 10:35:52;;;;;;;60.78;35.03;;;;;;;;;;5012803;28;20057;-76
2022/12/28 10:38:40;;;;;;;57.03;30.10;;;;;;;;;;4995561;28;20113;-76
2022/12/28 10:41:10;;;;;;;53.70;29.52;;;;;;;;;;5013067;28;20026;-75
2022/12/28 10:43:40;;;;;;;50.47;30.25;;;;;;;;;;5010086;28;20036;-76
2022/12/28 10:46:15;;;;;;;48.60;29.52;;;;;;;;;;5030635;28;20450;-76
2022/12/28 10:48:46;;;;;;;45.03;27.15;;;;;;;;;;5031515;28;20036;-77
2022/12/28 10:51:18;;;;;;;43.63;29.38;;;;;;;;;;5032477;28;20502;-75
2022/12/28 10:53:46;;;;;;;53.50;31.60;;;;;;;;;;5031464;28;20100;-76
2022/12/28 10:56:12;;;;;;;53.53;32.47;;;;;;;;;;5032705;28;20025;-75
2022/12/28 10:58:48;;;;;;;63.20;36.17;;;;;;;;;;5031289;28;20040;-76
2022/12/28 11:01:17;;;;;;;66.20;36.53;;;;;;;;;;5032615;28;20037;-74
2022/12/28 11:03:55;;;;;;;51.28;33.28;;;;;;;;;;5032512;28;20025;-75
2022/12/28 11:06:24;;;;;;;49.60;31.38;;;;;;;;;;5028805;28;20053;-76
2022/12/28 11:09:11;;;;;;;51.42;33.40;;;;;;;;;;5029600;28;20029;-76
2022/12/28 11:11:38;;;;;;;53.55;33.72;;;;;;;;;;5030860;28;20471;-75
2022/12/28 11:14:14;;;;;;;49.90;31.90;;;;;;;;;;5032041;28;20021;-76
2022/12/28 11:16:41;;;;;;;50.65;30.17;;;;;;;;;;5014839;28;20064;-76
2022/12/28 11:19:07;;;;;;;48.22;30.02;;;;;;;;;;5032439;28;20079;-76
2022/12/28 11:21:34;;;;;;;50.83;32.88;;;;;;;;;;5032681;28;20360;-76
2022/12/28 11:24:03;;;;;;;51.97;30.65;;;;;;;;;;5032837;28;20032;-77
2022/12/28 11:26:30;;;;;;;53.15;29.50;;;;;;;;;;5032066;28;20119;-75
2022/12/28 11:28:56;;;;;;;47.40;30.10;;;;;;;;;;5027139;28;20053;-75
2022/12/28 11:31:36;;;;;;;49.45;32.15;;;;;;;;;;5011981;28;20044;-75
2022/12/28 11:34:05;;;;;;;46.33;30.40;;;;;;;;;;5012650;28;20033;-75
2022/12/28 11:36:38;;;;;;;50.67;32.45;;;;;;;;;;5027600;28;20479;-76
2022/12/28 11:39:27;;;;;;;52.05;31.27;;;;;;;;;;5012622;28;20538;-77
2022/12/28 11:42:02;;;;;;;47.65;30.20;;;;;;;;;;5011782;28;20046;-76
2022/12/28 11:44:28;;;;;;;50.15;32.22;;;;;;;;;;5011327;28;20069;-77
2022/12/28 11:47:04;;;;;;;88.32;33.85;;;;;;;;;;5012600;28;20053;-76
2022/12/28 11:49:33;;;;;;;56.40;34.75;;;;;;;;;;5012569;28;20042;-74
2022/12/28 11:52:26;;;;;;;48.70;30.55;;;;;;;;;;5011021;28;20439;-75
2022/12/28 11:54:54;;;;;;;41.35;26.02;;;;;;;;;;5011466;28;20072;-74
2022/12/28 11:57:36;;;;;;;49.40;27.90;;;;;;;;;;5012164;28;20026;-75
2022/12/28 12:00:20;;;;;;;44.15;27.80;;;;;;;;;;5012702;28;20715;-75
2022/12/28 12:02:56;;;;;;;47.08;26.80;;;;;;;;;;5012017;28;20030;-74
2022/12/28 12:05:49;;;;;;;43.33;26.63;;;;;;;;;;5011040;28;20034;-75
2022/12/28 12:08:15;;;;;;;36.70;23.35;;;;;;;;;;5025862;28;20107;-74
2022/12/28 12:10:45;;;;;;;39.53;25.75;;;;;;;;;;5012444;28;20029;-74
2022/12/28 12:13:26;;;;;;;43.30;26.17;;;;;;;;;;5012388;28;20034;-76
2022/12/28 12:16:05;;;;;;;41.25;26.05;;;;;;;;;;5012745;28;20070;-75
2022/12/28 12:18:44;;;;;;;42.63;24.90;;;;;;;;;;5012570;28;20042;-75
2022/12/28 12:21:28;;;;;;;37.15;23.67;;;;;;;;;;5012913;28;20026;-74
2022/12/28 12:24:04;;;;;;;38.70;22.08;;;;;;;;;;5013416;28;20046;-75
2022/12/28 12:26:52;;;;;;;37.40;22.80;;;;;;;;;;5027835;28;20037;-75
2022/12/28 12:29:24;;;;;;;38.25;21.80;;;;;;;;;;5010538;28;20515;-75
2022/12/28 12:32:03;;;;;;;38.92;22.40;;;;;;;;;;5011599;28;20042;-75
2022/12/28 12:34:43;;;;;;;37.45;21.60;;;;;;;;;;5010926;28;20046;-73
2022/12/28 12:37:24;;;;;;;35.85;21.30;;;;;;;;;;5010985;28;20042;-74
2022/12/28 12:40:13;;;;;;;34.45;21.20;;;;;;;;;;5012036;28;20041;-76
2022/12/28 12:43:05;;;;;;;38.58;22.13;;;;;;;;;;5019664;28;20037;-77
2022/12/28 12:46:00;;;;;;;38.53;23.02;;;;;;;;;;5007772;28;20069;-76
2022/12/28 12:48:50;;;;;;;42.25;23.30;;;;;;;;;;5028843;28;20116;-75
2022/12/28 12:51:29;;;;;;;37.80;22.23;;;;;;;;;;5024712;28;20107;-76
2022/12/28 12:54:28;;;;;;;37.80;25.17;;;;;;;;;;5026676;28;20045;-76
2022/12/28 12:57:05;;;;;;;41.05;24.92;;;;;;;;;;5027260;28;20038;-75
2022/12/28 12:59:55;;;;;;;46.28;27.88;;;;;;;;;;5030894;28;20034;-76
2022/12/28 13:02:49;;;;;;;44.58;26.08;;;;;;;;;;5028777;28;20022;-75
2022/12/28 13:05:23;;;;;;;40.70;25.30;;;;;;;;;;4994734;28;20045;-77
2022/12/28 13:07:49;;;;;;;53.05;30.50;;;;;;;;;;5014633;28;20033;-77
2022/12/28 13:10:29;;;;;;;42.75;26.38;;;;;;;;;;5015301;28;20490;-78
2022/12/28 13:12:58;;;;;;;39.67;23.80;;;;;;;;;;5016652;28;20563;-77
2022/12/28 13:15:24;;;;;;;51.72;32.15;;;;;;;;;;5032084;28;20494;-78
2022/12/28 13:18:18;;;;;;;50.30;28.80;;;;;;;;;;5036664;28;20041;-75
2022/12/28 13:20:56;;;;;;;37.13;21.98;;;;;;;;;;5035139;28;20108;-76
2022/12/28 13:23:24;;;;;;;45.00;23.92;;;;;;;;;;5028737;28;20036;-76
2022/12/28 13:25:53;;;;;;;37.80;23.63;;;;;;;;;;5034410;28;20021;-75
2022/12/28 13:28:29;;;;;;;36.83;23.77;;;;;;;;;;5033592;28;20116;-75
2022/12/28 13:31:01;;;;;;;35.88;23.58;;;;;;;;;;5033749;28;20108;-76
2022/12/28 13:33:29;;;;;;;39.60;23.27;;;;;;;;;;5033058;28;20502;-74
2022/12/28 13:36:13;;;;;;;35.10;23.90;;;;;;;;;;5034091;28;20030;-76
2022/12/28 13:38:39;;;;;;;;;;;;;;;;;;5034474;28;20037;-75
2022/12/28 13:41:13;;;;;;;36.58;20.73;;;;;;;;;;5034554;28;19909;-74
2022/12/28 13:44:11;;;;;;;36.47;22.70;;;;;;;;;;5032804;28;20047;-74
2022/12/28 13:46:42;;;;;;;36.70;22.98;;;;;;;;;;5034224;28;20059;-77
2022/12/28 13:49:09;;;;;;;38.13;21.75;;;;;;;;;;5033984;28;20065;-74
2022/12/28 13:51:38;;;;;;;35.38;20.20;;;;;;;;;;5032491;28;20073;-74
2022/12/28 13:54:05;;;;;;;30.42;20.25;;;;;;;;;;5034066;28;20034;-74
2022/12/28 13:56:32;;;;;;;28.23;18.70;;;;;;;;;;5032428;28;20117;-74
2022/12/28 13:59:03;;;;;;;34.72;20.23;;;;;;;;;;5033946;28;20064;-74
2022/12/28 14:01:34;;;;;;;29.35;19.33;;;;;;;;;;5030708;28;20041;-75
2022/12/28 14:04:05;;;;;;;33.38;19.35;;;;;;;;;;5013428;28;20488;-73
2022/12/28 14:06:33;;;;;;;27.10;18.15;;;;;;;;;;5013244;28;20105;-71
2022/12/28 14:08:59;;;;;;;29.85;19.02;;;;;;;;;;5022386;28;20133;-73
2022/12/28 14:11:27;;;;;;;31.17;19.88;;;;;;;;;;5018043;28;20404;-74
2022/12/28 14:13:54;;;;;;;38.85;21.75;;;;;;;;;;5027639;28;20453;-73
2022/12/28 14:16:20;;;;;;;38.30;22.63;;;;;;;;;;5022977;28;20030;-73
2022/12/28 14:18:46;;;;;;;36.40;23.08;;;;;;;;;;5040460;28;20032;-73
2022/12/28 14:21:12;;;;;;;37.40;23.88;;;;;;;;;;5024840;28;20022;-73
2022/12/28 14:23:38;;;;;;;51.05;27.58;;;;;;;;;;5026891;28;20028;-73
2022/12/28 14:26:07;;;;;;;47.33;28.10;;;;;;;;;;5025659;28;20056;-71
2022/12/28 14:28:38;;;;;;;49.92;29.45;;;;;;;;;;5028172;28;20515;-74
2022/12/28 14:31:07;;;;;;;50.78;30.05;;;;;;;;;;5021146;28;20049;-73
2022/12/28 14:33:58;;;;;;;49.38;29.00;;;;;;;;;;5024101;28;20104;-72
2022/12/28 14:36:40;;;;;;;52.53;30.48;;;;;;;;;;5021260;28;20038;-73
2022/12/28 14:39:20;;;;;;;48.17;28.73;;;;;;;;;;5033011;28;20472;-72
2022/12/28 14:41:46;;;;;;;52.53;28.77;;;;;;;;;;5026180;28;20025;-73
2022/12/28 14:44:27;;;;;;;21.15;14.00;;;;;;;;;;5023198;28;20159;-71
2022/12/28 14:46:54;;;;;;;44.70;26.88;;;;;;;;;;5028365;28;20030;-72
2022/12/28 14:49:29;;;;;;;54.75;31.83;;;;;;;;;;5024828;28;20026;-72
2022/12/28 14:52:07;;;;;;;47.58;27.98;;;;;;;;;;5025614;28;20029;-72
2022/12/28 14:54:46;;;;;;;40.30;26.30;;;;;;;;;;5028107;28;20040;-71
2022/12/28 14:57:38;;;;;;;45.25;28.45;;;;;;;;;;5019829;28;20400;-72
2022/12/28 15:00:20;;;;;;;47.38;29.70;;;;;;;;;;5021567;28;20045;-72
2022/12/28 15:02:47;;;;;;;45.92;29.17;;;;;;;;;;5024049;28;20030;-73
2022/12/28 15:05:31;;;;;;;50.85;29.88;;;;;;;;;;5025023;28;20688;-73
2022/12/28 15:07:57;;;;;;;55.95;33.75;;;;;;;;;;5021314;28;20037;-73
2022/12/28 15:10:23;;;;;;;46.35;28.77;;;;;;;;;;5026395;28;20029;-73
2022/12/28 15:12:50;;;;;;;51.22;28.58;;;;;;;;;;5019345;28;20031;-72